Time;durP1;ratioP1;P1;durP2;ratioP2;P2;SDS_P1;SDS_P2;PMS_P1;PMS_P2;Temp;Humidity;BMP_temperature;BMP_pressure;BME280_temperature;BME280_humidity;BME280_pressure;Samples;Min_cycle;Max_cycle;Signal;HPM_P1;HPM_P2
2021/01/28 06:35:02;;;;;;;;;0.00;0.00;;;;;;;;240228;22;87386;-86
2021/01/28 06:36:08;;;;;;;;;0.50;0.25;;;;;;;;1547726;28;90357;-88
2021/01/28 06:37:24;;;;;;;;;0.25;0.25;;;;;;;;1547652;28;89393;-87
2021/01/28 06:38:09;;;;;;;;;0.00;0.00;;;;;;;;1547452;28;91945;-87
2021/01/28 06:39:19;;;;;;;;;0.00;0.00;;;;;;;;1547755;28;88864;-86
2021/01/28 06:40:09;;;;;;;;;0.00;0.00;;;;;;;;1547983;28;88967;-88
2021/01/28 06:41:00;;;;;;;;;0.00;0.00;;;;;;;;1541786;28;90615;-88
2021/01/28 06:41:51;;;;;;;;;1.00;1.00;;;;;;;;1545205;28;90435;-89
2021/01/28 06:43:08;;;;;;;;;0.00;0.00;;;;;;;;1541665;28;89418;-88
2021/01/28 06:43:56;;;;;;;;;0.00;0.00;;;;;;;;1536277;28;87731;-87
2021/01/28 06:44:48;;;;;;;;;0.00;0.00;;;;;;;;1547587;28;88793;-87
2021/01/28 06:45:36;;;;;;;;;0.00;0.00;;;;;;;;1541456;28;87628;-86
2021/01/28 06:46:25;;;;;;;;;0.00;0.00;;;;;;;;1538673;28;88918;-87
2021/01/28 06:47:18;;;;;;;;;0.00;0.00;;;;;;;;1543972;28;90910;-87
2021/01/28 06:48:16;;;;;;;;;0.00;0.00;;;;;;;;1544321;28;88950;-88
2021/01/28 06:49:15;;;;;;;;;0.25;0.25;;;;;;;;1547775;28;89601;-88
2021/01/28 06:50:13;;;;;;;;;0.00;0.00;;;;;;;;1541555;28;89117;-87
2021/01/28 06:51:01;;;;;;;;;0.00;0.00;;;;;;;;1549590;28;89024;-87
2021/01/28 06:52:02;;;;;;;;;0.00;0.00;;;;;;;;1541597;28;86986;-88
2021/01/28 06:52:52;;;;;;;;;0.00;0.00;;;;;;;;1545963;28;87186;-88
2021/01/28 06:53:49;;;;;;;;;0.00;0.00;;;;;;;;1546427;28;86057;-88
2021/01/28 06:55:06;;;;;;;;;0.00;0.00;;;;;;;;1547795;28;87051;-88
2021/01/28 06:56:02;;;;;;;;;0.00;0.00;;;;;;;;1525556;28;87068;-90
2021/01/28 06:57:06;;;;;;;;;0.50;0.00;;;;;;;;1522999;28;87972;-87
2021/01/28 06:57:51;;;;;;;;;0.00;0.00;;;;;;;;1529200;28;87058;-88
2021/01/28 06:58:39;;;;;;;;;0.00;0.00;;;;;;;;1527774;28;87150;-88
2021/01/28 06:59:43;;;;;;;;;1.00;0.00;;;;;;;;1523444;28;87067;-88
2021/01/28 07:00:31;;;;;;;;;0.00;0.00;;;;;;;;1522001;28;87290;-88
2021/01/28 07:01:20;;;;;;;;;0.00;0.00;;;;;;;;1522098;28;87044;-89
2021/01/28 07:02:15;;;;;;;;;0.00;0.00;;;;;;;;1523109;28;87219;-88
2021/01/28 07:03:04;;;;;;;;;0.00;0.00;;;;;;;;1520783;28;86389;-87
2021/01/28 07:04:08;;;;;;;;;0.00;0.00;;;;;;;;1526947;28;87107;-89
2021/01/28 07:05:19;;;;;;;;;0.00;0.00;;;;;;;;1523395;28;87021;-88
2021/01/28 07:06:05;;;;;;;;;0.50;0.50;;;;;;;;1526361;28;87771;-88
2021/01/28 07:07:02;;;;;;;;;0.00;0.00;;;;;;;;1523425;28;87024;-88
2021/01/28 07:07:52;;;;;;;;;0.00;0.00;;;;;;;;1519576;28;87018;-88
2021/01/28 07:08:41;;;;;;;;;0.00;0.00;;;;;;;;1527808;28;86921;-88
2021/01/28 07:09:43;;;;;;;;;0.00;0.00;;;;;;;;1526481;28;86969;-87
2021/01/28 07:10:33;;;;;;;;;0.00;0.00;;;;;;;;1523580;28;86819;-88
2021/01/28 07:11:24;;;;;;;;;0.00;0.00;;;;;;;;1523511;28;86999;-89
2021/01/28 07:12:12;;;;;;;;;0.00;0.00;;;;;;;;1517997;28;86714;-87
2021/01/28 07:12:57;;;;;;;;;0.00;0.00;;;;;;;;1520259;28;87610;-88
2021/01/28 07:13:42;;;;;;;;;0.00;0.00;;;;;;;;1520242;28;87159;-88
2021/01/28 07:14:28;;;;;;;;;0.00;0.00;;;;;;;;1517501;28;87924;-88
2021/01/28 07:15:13;;;;;;;;;0.00;0.00;;;;;;;;1520512;28;86732;-88
2021/01/28 07:16:19;;;;;;;;;0.00;0.00;;;;;;;;1519919;28;87041;-89
2021/01/28 07:17:04;;;;;;;;;0.00;0.00;;;;;;;;1520312;28;87028;-89
2021/01/28 07:17:58;;;;;;;;;0.00;0.00;;;;;;;;1527271;28;89257;-90
2021/01/28 07:18:58;;;;;;;;;2.00;1.00;;;;;;;;1531131;28;90442;-88
2021/01/28 07:19:50;;;;;;;;;0.00;0.00;;;;;;;;1535161;28;89259;-88
2021/01/28 07:20:40;;;;;;;;;0.00;0.00;;;;;;;;1524960;28;89625;-88
2021/01/28 07:21:33;;;;;;;;;0.25;0.25;;;;;;;;1520942;28;88218;-87
2021/01/28 07:22:30;;;;;;;;;0.00;0.00;;;;;;;;1526868;28;87578;-87
2021/01/28 07:23:26;;;;;;;;;0.00;0.00;;;;;;;;1521664;28;90613;-89
2021/01/28 07:24:11;;;;;;;;;0.00;0.00;;;;;;;;1517620;28;89765;-89
2021/01/28 07:25:16;;;;;;;;;0.00;0.00;;;;;;;;1514656;28;90317;-89
2021/01/28 07:26:06;;;;;;;;;0.00;0.00;;;;;;;;1521824;28;89876;-89
2021/01/28 07:26:59;;;;;;;;;0.75;0.75;;;;;;;;1522882;28;90366;-88
2021/01/28 07:28:04;;;;;;;;;0.00;0.00;;;;;;;;1517379;28;89805;-89
2021/01/28 07:28:49;;;;;;;;;0.00;0.00;;;;;;;;1515219;28;90293;-87
2021/01/28 07:29:35;;;;;;;;;0.00;0.00;;;;;;;;1522050;28;90065;-88
2021/01/28 07:30:49;;;;;;;;;0.00;0.00;;;;;;;;1519735;28;88210;-88
2021/01/28 07:31:49;;;;;;;;;0.00;0.00;;;;;;;;1517096;28;88579;-88
2021/01/28 07:32:34;;;;;;;;;1.00;0.00;;;;;;;;1536042;28;89635;-86
2021/01/28 07:33:22;;;;;;;;;0.00;0.00;;;;;;;;1535089;28;89650;-87
2021/01/28 07:34:10;;;;;;;;;0.50;0.50;;;;;;;;1533512;28;89785;-87
2021/01/28 07:35:14;;;;;;;;;0.00;0.00;;;;;;;;1537697;28;90129;-87
2021/01/28 07:36:22;;;;;;;;;1.00;1.00;;;;;;;;1540430;28;90023;-86
2021/01/28 07:37:16;;;;;;;;;0.00;0.00;;;;;;;;1538202;28;90003;-86
2021/01/28 07:38:24;;;;;;;;;0.00;0.00;;;;;;;;1535107;28;89890;-86
2021/01/28 07:39:27;;;;;;;;;0.00;0.00;;;;;;;;1539964;28;88033;-88
2021/01/28 07:40:33;;;;;;;;;0.00;0.00;;;;;;;;1546780;28;89010;-88
2021/01/28 07:41:32;;;;;;;;;1.00;0.00;;;;;;;;1541333;28;87676;-86
2021/01/28 07:42:26;;;;;;;;;0.00;0.00;;;;;;;;1547512;28;90364;-89
2021/01/28 07:43:23;;;;;;;;;0.00;0.00;;;;;;;;1550316;28;89890;-87
2021/01/28 07:44:23;;;;;;;;;0.00;0.00;;;;;;;;1541343;28;89023;-87
2021/01/28 07:45:43;;;;;;;;;0.00;0.00;;;;;;;;1540305;28;89525;-89
2021/01/28 07:46:31;;;;;;;;;0.00;0.00;;;;;;;;1523610;28;90086;-86
2021/01/28 07:47:31;;;;;;;;;1.50;0.00;;;;;;;;1529136;28;90605;-86
2021/01/28 07:48:26;;;;;;;;;0.00;0.00;;;;;;;;1543193;28;88997;-86
2021/01/28 07:49:40;;;;;;;;;0.00;0.00;;;;;;;;1540828;28;89807;-88
2021/01/28 07:50:27;;;;;;;;;0.00;0.00;;;;;;;;1540129;28;89114;-87
2021/01/28 07:51:33;;;;;;;;;1.00;1.00;;;;;;;;1541124;28;88139;-87
2021/01/28 07:52:18;;;;;;;;;0.00;0.00;;;;;;;;1536991;28;90288;-87
2021/01/28 07:53:36;;;;;;;;;4.00;0.67;;;;;;;;1539655;28;89263;-88
2021/01/28 07:54:23;;;;;;;;;0.75;0.25;;;;;;;;1547768;28;87751;-89
2021/01/28 07:55:27;;;;;;;;;2.25;0.75;;;;;;;;1547238;28;90524;-89
2021/01/28 07:56:38;;;;;;;;;1.00;1.00;;;;;;;;1547316;28;88960;-89
2021/01/28 07:57:26;;;;;;;;;0.50;0.50;;;;;;;;1541001;28;90370;-88
2021/01/28 07:58:18;;;;;;;;;0.00;0.00;;;;;;;;1542458;28;87689;-88
2021/01/28 07:59:23;;;;;;;;;0.00;0.00;;;;;;;;1538614;28;88790;-88
2021/01/28 08:00:16;;;;;;;;;1.00;0.25;;;;;;;;1533721;28;89080;-88
2021/01/28 08:01:12;;;;;;;;;0.00;0.00;;;;;;;;1540285;28;89550;-88
2021/01/28 08:02:16;;;;;;;;;1.75;0.00;;;;;;;;1539747;28;90060;-90
2021/01/28 08:03:03;;;;;;;;;0.00;0.00;;;;;;;;1538120;28;89149;-89
2021/01/28 08:04:06;;;;;;;;;0.00;0.00;;;;;;;;1533679;28;90620;-90
2021/01/28 08:04:54;;;;;;;;;0.00;0.00;;;;;;;;1539244;28;89876;-88
2021/01/28 08:05:49;;;;;;;;;2.50;0.00;;;;;;;;1541336;28;88944;-89
2021/01/28 08:06:37;;;;;;;;;0.00;0.00;;;;;;;;1544635;28;90405;-89
2021/01/28 08:07:32;;;;;;;;;1.00;0.00;;;;;;;;1540598;28;91578;-88
2021/01/28 08:08:18;;;;;;;;;0.00;0.00;;;;;;;;1544861;28;88352;-87
2021/01/28 08:09:06;;;;;;;;;0.00;0.00;;;;;;;;1544358;28;88811;-87
2021/01/28 08:09:52;;;;;;;;;2.00;0.00;;;;;;;;1543806;28;88934;-87
2021/01/28 08:10:39;;;;;;;;;0.00;0.00;;;;;;;;1543087;28;87953;-86
2021/01/28 08:11:24;;;;;;;;;0.50;0.00;;;;;;;;1541034;28;88630;-88
2021/01/28 08:12:10;;;;;;;;;0.67;0.67;;;;;;;;1543142;28;86920;-85
2021/01/28 08:12:57;;;;;;;;;0.00;0.00;;;;;;;;1547234;28;87115;-87
2021/01/28 08:13:43;;;;;;;;;0.25;0.25;;;;;;;;1543112;28;86932;-85
2021/01/28 08:14:31;;;;;;;;;0.00;0.00;;;;;;;;1540922;28;87041;-87
2021/01/28 08:15:18;;;;;;;;;0.00;0.00;;;;;;;;1536856;28;87017;-86
2021/01/28 08:16:06;;;;;;;;;0.00;0.00;;;;;;;;1541043;28;87233;-86
2021/01/28 08:16:54;;;;;;;;;0.00;0.00;;;;;;;;1543410;28;86991;-86
2021/01/28 08:17:40;;;;;;;;;0.00;0.00;;;;;;;;1540802;28;87127;-85
2021/01/28 08:18:27;;;;;;;;;0.00;0.00;;;;;;;;1536976;28;88145;-87
2021/01/28 08:19:14;;;;;;;;;0.00;0.00;;;;;;;;1536977;28;87141;-87
2021/01/28 08:20:13;;;;;;;;;0.00;0.00;;;;;;;;1543502;28;87021;-87
2021/01/28 08:21:02;;;;;;;;;0.00;0.00;;;;;;;;1541089;28;87018;-86
2021/01/28 08:21:47;;;;;;;;;0.50;0.50;;;;;;;;1539020;28;86975;-86
2021/01/28 08:22:32;;;;;;;;;0.00;0.00;;;;;;;;1537180;28;87335;-86
2021/01/28 08:23:23;;;;;;;;;1.00;1.00;;;;;;;;1534952;28;86780;-86
2021/01/28 08:24:10;;;;;;;;;0.50;0.50;;;;;;;;1531393;28;86891;-86
2021/01/28 08:24:56;;;;;;;;;0.00;0.00;;;;;;;;1537624;28;86874;-86
2021/01/28 08:26:01;;;;;;;;;0.00;0.00;;;;;;;;1537254;28;87116;-86
2021/01/28 08:26:46;;;;;;;;;1.75;1.75;;;;;;;;1532591;28;87981;-86
2021/01/28 08:27:37;;;;;;;;;2.00;0.00;;;;;;;;1539480;28;87161;-87
2021/01/28 08:28:24;;;;;;;;;0.00;0.00;;;;;;;;1537456;28;86928;-86
2021/01/28 08:29:14;;;;;;;;;0.00;0.00;;;;;;;;1537791;28;87007;-86
2021/01/28 08:30:15;;;;;;;;;0.75;0.00;;;;;;;;1537393;28;87250;-86
2021/01/28 08:31:19;;;;;;;;;0.50;0.50;;;;;;;;1539691;28;86922;-85
2021/01/28 08:32:15;;;;;;;;;0.00;0.00;;;;;;;;1541034;28;87110;-86
2021/01/28 08:33:00;;;;;;;;;0.50;0.00;;;;;;;;1546800;28;86759;-86
2021/01/28 08:33:47;;;;;;;;;0.00;0.00;;;;;;;;1550774;28;86959;-86
2021/01/28 08:34:33;;;;;;;;;0.00;0.00;;;;;;;;1543327;28;88524;-86
2021/01/28 08:35:24;;;;;;;;;0.00;0.00;;;;;;;;1546790;28;89180;-85
2021/01/28 08:36:35;;;;;;;;;0.00;0.00;;;;;;;;1547145;28;91205;-87
2021/01/28 08:37:21;;;;;;;;;0.00;0.00;;;;;;;;1528595;28;87633;-84
2021/01/28 08:38:27;;;;;;;;;0.00;0.00;;;;;;;;1543776;28;90113;-86
2021/01/28 08:39:12;;;;;;;;;0.00;0.00;;;;;;;;1546975;28;89952;-86
2021/01/28 08:39:57;;;;;;;;;0.00;0.00;;;;;;;;1542502;28;90035;-85
2021/01/28 08:40:47;;;;;;;;;0.00;0.00;;;;;;;;1545191;28;90176;-85
2021/01/28 08:41:32;;;;;;;;;0.00;0.00;;;;;;;;1547713;28;89113;-87
2021/01/28 08:42:19;;;;;;;;;1.00;1.00;;;;;;;;1544798;28;89736;-86
2021/01/28 08:43:05;;;;;;;;;0.00;0.00;;;;;;;;1541050;28;90223;-85
2021/01/28 08:44:07;;;;;;;;;0.00;0.00;;;;;;;;1540557;28;90277;-86
2021/01/28 08:45:08;;;;;;;;;1.00;1.00;;;;;;;;1541367;28;92515;-86
2021/01/28 08:46:22;;;;;;;;;0.00;0.00;;;;;;;;1540154;28;89010;-87
2021/01/28 08:47:19;;;;;;;;;0.00;0.00;;;;;;;;1536596;28;89351;-85
2021/01/28 08:48:06;;;;;;;;;0.50;0.50;;;;;;;;1534873;28;90460;-87
2021/01/28 08:49:01;;;;;;;;;0.75;0.25;;;;;;;;1538629;28;90534;-87
2021/01/28 08:49:59;;;;;;;;;0.00;0.00;;;;;;;;1538439;28;90034;-86
2021/01/28 08:50:44;;;;;;;;;0.00;0.00;;;;;;;;1534996;28;90439;-87
2021/01/28 08:51:30;;;;;;;;;0.67;0.67;;;;;;;;1539963;28;89326;-87
2021/01/28 08:52:16;;;;;;;;;0.00;0.00;;;;;;;;1547083;28;90448;-86
2021/01/28 08:53:06;;;;;;;;;0.00;0.00;;;;;;;;1540823;28;89423;-87
2021/01/28 08:53:56;;;;;;;;;1.50;1.50;;;;;;;;1540971;28;91235;-87
2021/01/28 08:54:42;;;;;;;;;0.00;0.00;;;;;;;;1538255;28;88771;-87
2021/01/28 08:55:31;;;;;;;;;1.00;1.00;;;;;;;;1543769;28;90324;-87
2021/01/28 08:56:20;;;;;;;;;0.00;0.00;;;;;;;;1540965;28;90168;-87
2021/01/28 08:57:07;;;;;;;;;0.25;0.25;;;;;;;;1542733;28;90205;-87
2021/01/28 08:57:54;;;;;;;;;0.50;0.50;;;;;;;;1543632;28;89732;-86
2021/01/28 08:58:41;;;;;;;;;0.00;0.00;;;;;;;;1537390;28;89146;-86
2021/01/28 08:59:31;;;;;;;;;2.00;1.00;;;;;;;;1537482;28;89560;-87
2021/01/28 09:00:22;;;;;;;;;0.00;0.00;;;;;;;;1537818;28;90901;-86
2021/01/28 09:01:10;;;;;;;;;0.00;0.00;;;;;;;;1533871;28;91342;-86
2021/01/28 09:01:56;;;;;;;;;0.50;0.50;;;;;;;;1538013;28;89456;-87
2021/01/28 09:02:44;;;;;;;;;0.00;0.00;;;;;;;;1543032;28;90451;-87
2021/01/28 09:03:39;;;;;;;;;0.00;0.00;;;;;;;;1544634;28;90683;-87
2021/01/28 09:04:31;;;;;;;;;0.00;0.00;;;;;;;;1547051;28;90403;-86
2021/01/28 09:05:22;;;;;;;;;1.00;1.00;;;;;;;;1547026;28;90182;-87
2021/01/28 09:06:07;;;;;;;;;2.00;2.00;;;;;;;;1543323;28;89707;-86
2021/01/28 09:06:53;;;;;;;;;2.67;2.67;;;;;;;;1546824;28;89336;-86
2021/01/28 09:07:43;;;;;;;;;3.33;2.00;;;;;;;;1541084;28;90349;-86
2021/01/28 09:08:35;;;;;;;;;1.00;1.00;;;;;;;;1540777;28;89070;-87
2021/01/28 09:09:21;;;;;;;;;2.00;2.00;;;;;;;;1540566;28;90413;-87
2021/01/28 09:10:06;;;;;;;;;0.33;0.33;;;;;;;;1540821;28;88346;-87
2021/01/28 09:10:51;;;;;;;;;1.33;1.33;;;;;;;;1536664;28;90333;-86
2021/01/28 09:11:37;;;;;;;;;2.33;2.33;;;;;;;;1536751;28;90081;-86
2021/01/28 09:12:27;;;;;;;;;1.00;1.00;;;;;;;;1542836;28;90592;-86
2021/01/28 09:13:23;;;;;;;;;1.25;1.25;;;;;;;;1540527;28;90257;-87
2021/01/28 09:14:23;;;;;;;;;2.00;2.00;;;;;;;;1538696;28;90725;-86
2021/01/28 09:15:17;;;;;;;;;3.00;3.00;;;;;;;;1546470;28;89418;-86
2021/01/28 09:16:11;;;;;;;;;2.00;2.00;;;;;;;;1545362;28;89728;-86
2021/01/28 09:17:02;;;;;;;;;3.00;3.00;;;;;;;;1540379;28;90093;-86
2021/01/28 09:17:48;;;;;;;;;2.00;2.00;;;;;;;;1532327;28;91690;-86
2021/01/28 09:18:36;;;;;;;;;1.67;1.67;;;;;;;;1531513;28;90413;-87
2021/01/28 09:19:22;;;;;;;;;1.50;1.00;;;;;;;;1537075;28;90405;-87
2021/01/28 09:20:10;;;;;;;;;0.50;0.50;;;;;;;;1534679;28;90286;-87
2021/01/28 09:21:07;;;;;;;;;1.50;1.50;;;;;;;;1531160;28;89367;-86
2021/01/28 09:21:58;;;;;;;;;1.00;1.00;;;;;;;;1541205;28;90476;-87
2021/01/28 09:22:43;;;;;;;;;0.50;0.50;;;;;;;;1540948;28;86892;-86
2021/01/28 09:23:28;;;;;;;;;1.00;0.00;;;;;;;;1537251;28;86322;-86
2021/01/28 09:24:16;;;;;;;;;2.00;2.00;;;;;;;;1536672;28;87108;-87
2021/01/28 09:25:13;;;;;;;;;1.00;1.00;;;;;;;;1537078;28;86963;-87
2021/01/28 09:26:09;;;;;;;;;1.00;1.00;;;;;;;;1540567;28;87920;-86
2021/01/28 09:27:06;;;;;;;;;0.75;0.75;;;;;;;;1539749;28;86758;-87
2021/01/28 09:28:04;;;;;;;;;1.00;1.00;;;;;;;;1539602;28;87043;-88
2021/01/28 09:28:50;;;;;;;;;0.75;0.75;;;;;;;;1540091;28;86900;-87
2021/01/28 09:29:37;;;;;;;;;3.00;1.00;;;;;;;;1538318;28;87844;-87
2021/01/28 09:30:23;;;;;;;;;2.00;1.00;;;;;;;;1543147;28;86905;-87
2021/01/28 09:31:27;;;;;;;;;0.25;0.25;;;;;;;;1538580;28;87077;-87
2021/01/28 09:32:18;;;;;;;;;0.75;0.75;;;;;;;;1543295;28;86417;-87
2021/01/28 09:33:22;;;;;;;;;1.25;1.25;;;;;;;;1546034;28;87082;-88
2021/01/28 09:34:11;;;;;;;;;1.00;1.00;;;;;;;;1540737;28;86949;-87
2021/01/28 09:35:05;;;;;;;;;0.00;0.00;;;;;;;;1539520;28;87864;-87
2021/01/28 09:35:59;;;;;;;;;1.75;1.75;;;;;;;;1538426;28;86899;-87
2021/01/28 09:36:52;;;;;;;;;2.00;1.00;;;;;;;;1537926;28;87325;-87
2021/01/28 09:37:38;;;;;;;;;0.50;0.50;;;;;;;;1539070;28;87116;-87
2021/01/28 09:38:23;;;;;;;;;1.00;1.00;;;;;;;;1537868;28;87212;-86
2021/01/28 09:39:21;;;;;;;;;0.67;0.67;;;;;;;;1536739;28;87051;-86
2021/01/28 09:40:18;;;;;;;;;1.00;1.00;;;;;;;;1544434;28;86932;-88
2021/01/28 09:41:09;;;;;;;;;0.67;0.67;;;;;;;;1547087;28;87165;-86
2021/01/28 09:41:54;;;;;;;;;1.00;1.00;;;;;;;;1544803;28;87091;-87
2021/01/28 09:42:40;;;;;;;;;1.00;1.00;;;;;;;;1547075;28;87172;-87
2021/01/28 09:43:32;;;;;;;;;2.00;2.00;;;;;;;;1540856;28;88261;-88
2021/01/28 09:44:32;;;;;;;;;0.75;0.75;;;;;;;;1537733;28;86869;-88
2021/01/28 09:45:26;;;;;;;;;1.00;1.00;;;;;;;;1539950;28;86931;-88
2021/01/28 09:46:22;;;;;;;;;1.00;1.00;;;;;;;;1542508;28;87027;-86
2021/01/28 09:47:11;;;;;;;;;0.75;0.00;;;;;;;;1545062;28;88023;-86
2021/01/28 09:47:58;;;;;;;;;0.00;0.00;;;;;;;;1551438;28;88880;-87
2021/01/28 09:48:44;;;;;;;;;1.75;1.75;;;;;;;;1553291;28;87918;-86
2021/01/28 09:49:29;;;;;;;;;0.33;0.33;;;;;;;;1551426;28;89154;-87
2021/01/28 09:50:15;;;;;;;;;1.00;1.00;;;;;;;;1547148;28;87195;-87
2021/01/28 09:51:02;;;;;;;;;1.67;0.67;;;;;;;;1546414;28;87689;-87
2021/01/28 09:51:49;;;;;;;;;3.00;1.25;;;;;;;;1542923;28;90450;-87
2021/01/28 09:52:36;;;;;;;;;0.25;0.25;;;;;;;;1539992;28;90992;-87
2021/01/28 09:53:21;;;;;;;;;0.00;0.00;;;;;;;;1543262;28;90222;-87
2021/01/28 09:54:10;;;;;;;;;2.00;2.00;;;;;;;;1542616;28;89949;-86
2021/01/28 09:54:58;;;;;;;;;1.75;1.75;;;;;;;;1540650;28;90343;-87
2021/01/28 09:55:43;;;;;;;;;1.00;1.00;;;;;;;;1537443;28;90477;-87
2021/01/28 09:56:29;;;;;;;;;0.67;0.67;;;;;;;;1542739;28;91083;-87
2021/01/28 09:57:14;;;;;;;;;1.50;1.50;;;;;;;;1540577;28;90070;-85
2021/01/28 09:57:59;;;;;;;;;0.33;0.33;;;;;;;;1542712;28;89432;-88
2021/01/28 09:58:45;;;;;;;;;0.33;0.33;;;;;;;;1540737;28;89906;-88
2021/01/28 09:59:30;;;;;;;;;0.50;0.50;;;;;;;;1542594;28;88816;-88
2021/01/28 10:00:17;;;;;;;;;1.33;1.33;;;;;;;;1540539;28;89421;-86
2021/01/28 10:01:04;;;;;;;;;0.50;0.50;;;;;;;;1541732;28;88362;-86
2021/01/28 10:01:49;;;;;;;;;1.00;1.00;;;;;;;;1540585;28;90389;-86
2021/01/28 10:02:35;;;;;;;;;0.00;0.00;;;;;;;;1534697;28;90118;-87
2021/01/28 10:03:21;;;;;;;;;1.33;1.33;;;;;;;;1530401;28;90311;-89
2021/01/28 10:04:06;;;;;;;;;0.75;0.75;;;;;;;;1530732;28;90489;-86
2021/01/28 10:04:51;;;;;;;;;1.00;1.00;;;;;;;;1536727;28;90567;-86
2021/01/28 10:05:37;;;;;;;;;1.00;1.00;;;;;;;;1535274;28;89246;-86
2021/01/28 10:06:22;;;;;;;;;1.00;1.00;;;;;;;;1542544;28;89975;-86
2021/01/28 10:07:07;;;;;;;;;0.00;0.00;;;;;;;;1542272;28;89239;-86
2021/01/28 10:07:53;;;;;;;;;0.00;0.00;;;;;;;;1538463;28;91011;-86
2021/01/28 10:08:38;;;;;;;;;0.67;0.00;;;;;;;;1532895;28;90234;-86
2021/01/28 10:09:23;;;;;;;;;0.67;0.67;;;;;;;;1530284;28;90621;-86
2021/01/28 10:10:09;;;;;;;;;0.67;0.67;;;;;;;;1530285;28;90195;-85
2021/01/28 10:10:54;;;;;;;;;1.00;1.00;;;;;;;;1536213;28;88205;-87
2021/01/28 10:11:40;;;;;;;;;1.00;0.00;;;;;;;;1544744;28;90524;-87
2021/01/28 10:12:26;;;;;;;;;2.67;1.67;;;;;;;;1540627;28;89505;-87
2021/01/28 10:13:14;;;;;;;;;0.00;0.00;;;;;;;;1542674;28;87038;-86
2021/01/28 10:14:00;;;;;;;;;0.75;0.75;;;;;;;;1542845;28;89972;-86
2021/01/28 10:14:45;;;;;;;;;2.00;1.00;;;;;;;;1540148;28;90589;-85
2021/01/28 10:15:30;;;;;;;;;1.33;0.33;;;;;;;;1539953;28;89276;-86
2021/01/28 10:16:16;;;;;;;;;0.33;0.33;;;;;;;;1542246;28;89979;-86
2021/01/28 10:17:01;;;;;;;;;1.00;1.00;;;;;;;;1546406;28;89308;-86
2021/01/28 10:17:47;;;;;;;;;0.75;0.75;;;;;;;;1546798;28;86901;-86
2021/01/28 10:18:32;;;;;;;;;0.00;0.00;;;;;;;;1544422;28;88864;-86
2021/01/28 10:19:18;;;;;;;;;1.00;1.00;;;;;;;;1546549;28;90315;-86
2021/01/28 10:20:04;;;;;;;;;0.67;0.00;;;;;;;;1540816;28;89504;-87
2021/01/28 10:20:49;;;;;;;;;1.75;1.75;;;;;;;;1541027;28;90390;-87
2021/01/28 10:21:35;;;;;;;;;0.33;0.33;;;;;;;;1542768;28;89493;-88
2021/01/28 10:22:20;;;;;;;;;0.00;0.00;;;;;;;;1542493;28;90408;-88
2021/01/28 10:23:06;;;;;;;;;0.67;0.67;;;;;;;;1540545;28;90308;-88
2021/01/28 10:23:52;;;;;;;;;1.75;0.00;;;;;;;;1542811;28;90376;-88
2021/01/28 10:24:37;;;;;;;;;0.00;0.00;;;;;;;;1540757;28;89949;-88
2021/01/28 10:25:22;;;;;;;;;1.00;1.00;;;;;;;;1536173;28;90314;-88
2021/01/28 10:26:08;;;;;;;;;0.67;0.67;;;;;;;;1536603;28;90010;-89
2021/01/28 10:26:53;;;;;;;;;1.67;0.67;;;;;;;;1542400;28;89275;-87
2021/01/28 10:27:39;;;;;;;;;1.33;1.33;;;;;;;;1542471;28;89505;-88
2021/01/28 10:28:24;;;;;;;;;2.00;2.00;;;;;;;;1536303;28;89863;-87
2021/01/28 10:29:09;;;;;;;;;0.67;0.67;;;;;;;;1540338;28;90527;-88
2021/01/28 10:29:54;;;;;;;;;1.67;1.33;;;;;;;;1536999;28;89710;-88
2021/01/28 10:30:40;;;;;;;;;0.00;0.00;;;;;;;;1536320;28;87356;-88
2021/01/28 10:31:25;;;;;;;;;0.00;0.00;;;;;;;;1540105;28;87074;-87
2021/01/28 10:32:12;;;;;;;;;0.00;0.00;;;;;;;;1546705;28;87065;-87
2021/01/28 10:32:58;;;;;;;;;1.00;1.00;;;;;;;;1547343;28;87032;-87
2021/01/28 10:33:43;;;;;;;;;0.75;0.75;;;;;;;;1546562;28;86892;-87
2021/01/28 10:34:28;;;;;;;;;0.67;0.67;;;;;;;;1546211;28;87093;-86
2021/01/28 10:35:15;;;;;;;;;0.67;0.67;;;;;;;;1546127;28;86476;-86
2021/01/28 10:36:01;;;;;;;;;0.75;0.75;;;;;;;;1548810;28;86998;-86
2021/01/28 10:36:46;;;;;;;;;0.00;0.00;;;;;;;;1552702;28;87494;-86
2021/01/28 10:37:31;;;;;;;;;3.67;0.67;;;;;;;;1552517;28;88139;-86
2021/01/28 10:38:16;;;;;;;;;0.00;0.00;;;;;;;;1550693;28;86849;-86
2021/01/28 10:39:02;;;;;;;;;0.00;0.00;;;;;;;;1546650;28;86986;-86
2021/01/28 10:39:47;;;;;;;;;1.00;0.67;;;;;;;;1552764;28;87308;-87
2021/01/28 10:40:33;;;;;;;;;0.33;0.33;;;;;;;;1552655;28;87098;-87
2021/01/28 10:41:18;;;;;;;;;0.00;0.00;;;;;;;;1550685;28;87079;-87
2021/01/28 10:42:03;;;;;;;;;0.33;0.33;;;;;;;;1546545;28;87107;-87
2021/01/28 10:42:52;;;;;;;;;0.67;0.67;;;;;;;;1550891;28;86703;-87
2021/01/28 10:43:37;;;;;;;;;0.00;0.00;;;;;;;;1552652;28;86969;-87
2021/01/28 10:44:23;;;;;;;;;0.00;0.00;;;;;;;;1550214;28;87323;-86
2021/01/28 10:45:11;;;;;;;;;0.25;0.25;;;;;;;;1546099;28;88040;-86
2021/01/28 10:45:56;;;;;;;;;0.00;0.00;;;;;;;;1545318;28;87164;-86
2021/01/28 10:46:42;;;;;;;;;0.00;0.00;;;;;;;;1540448;28;87058;-87
2021/01/28 10:47:27;;;;;;;;;1.00;0.75;;;;;;;;1536192;28;87052;-86
2021/01/28 10:48:15;;;;;;;;;0.00;0.00;;;;;;;;1540155;28;87038;-86
2021/01/28 10:49:00;;;;;;;;;1.67;0.33;;;;;;;;1544987;28;87196;-85
2021/01/28 10:49:45;;;;;;;;;0.67;0.67;;;;;;;;1546498;28;86926;-86
2021/01/28 10:50:32;;;;;;;;;3.00;1.00;;;;;;;;1542203;28;86773;-85
2021/01/28 10:51:17;;;;;;;;;1.00;1.00;;;;;;;;1540133;28;87019;-86
2021/01/28 10:52:03;;;;;;;;;0.33;0.33;;;;;;;;1539609;28;86976;-85
2021/01/28 10:52:48;;;;;;;;;2.67;1.00;;;;;;;;1536716;28;90675;-86
2021/01/28 10:53:36;;;;;;;;;1.33;1.33;;;;;;;;1540160;28;90904;-86
2021/01/28 10:54:21;;;;;;;;;0.00;0.00;;;;;;;;1542306;28;90341;-86
2021/01/28 10:55:08;;;;;;;;;0.67;0.67;;;;;;;;1540451;28;90309;-86
2021/01/28 10:55:53;;;;;;;;;0.00;0.00;;;;;;;;1537982;28;89829;-86
2021/01/28 10:56:38;;;;;;;;;1.00;0.33;;;;;;;;1536492;28;90247;-87
2021/01/28 10:57:24;;;;;;;;;0.00;0.00;;;;;;;;1536908;28;90105;-86
2021/01/28 10:58:09;;;;;;;;;0.67;0.67;;;;;;;;1536249;28;91195;-86
2021/01/28 10:58:54;;;;;;;;;0.00;0.00;;;;;;;;1536318;28;88647;-86
2021/01/28 10:59:39;;;;;;;;;0.00;0.00;;;;;;;;1542271;28;87629;-86
2021/01/28 11:00:26;;;;;;;;;0.00;0.00;;;;;;;;1542063;28;90492;-86
2021/01/28 11:01:11;;;;;;;;;0.25;0.00;;;;;;;;1540056;28;91189;-86
2021/01/28 11:01:57;;;;;;;;;0.00;0.00;;;;;;;;1542791;28;90010;-86
2021/01/28 11:02:42;;;;;;;;;0.67;0.67;;;;;;;;1546613;28;89882;-87
2021/01/28 11:03:27;;;;;;;;;0.00;0.00;;;;;;;;1542365;28;89852;-87
2021/01/28 11:04:12;;;;;;;;;0.00;0.00;;;;;;;;1540129;28;90314;-87
2021/01/28 11:04:58;;;;;;;;;0.00;0.00;;;;;;;;1537273;28;89798;-86
2021/01/28 11:05:44;;;;;;;;;0.00;0.00;;;;;;;;1542630;28;90447;-87
2021/01/28 11:06:29;;;;;;;;;3.25;0.50;;;;;;;;1540203;28;88672;-86
2021/01/28 11:07:14;;;;;;;;;0.00;0.00;;;;;;;;1536199;28;90478;-87
2021/01/28 11:08:00;;;;;;;;;0.00;0.00;;;;;;;;1536037;28;90469;-87
2021/01/28 11:08:46;;;;;;;;;0.75;0.75;;;;;;;;1542278;28;90132;-86
2021/01/28 11:09:31;;;;;;;;;0.00;0.00;;;;;;;;1540109;28;89091;-87
2021/01/28 11:10:18;;;;;;;;;0.33;0.33;;;;;;;;1540367;28;90132;-86
2021/01/28 11:11:04;;;;;;;;;0.50;0.50;;;;;;;;1542627;28;87008;-86
2021/01/28 11:11:52;;;;;;;;;0.00;0.00;;;;;;;;1542829;28;89164;-86
2021/01/28 11:12:37;;;;;;;;;0.00;0.00;;;;;;;;1540127;28;90325;-87
2021/01/28 11:13:22;;;;;;;;;0.00;0.00;;;;;;;;1539410;28;90056;-87
2021/01/28 11:14:07;;;;;;;;;0.00;0.00;;;;;;;;1542221;28;88588;-86
2021/01/28 11:14:53;;;;;;;;;0.00;0.00;;;;;;;;1540029;28;88788;-86
2021/01/28 11:15:38;;;;;;;;;0.00;0.00;;;;;;;;1539881;28;91314;-86
2021/01/28 11:16:24;;;;;;;;;0.00;0.00;;;;;;;;1542120;28;90367;-86
2021/01/28 11:17:09;;;;;;;;;0.00;0.00;;;;;;;;1546451;28;89953;-86
2021/01/28 11:17:55;;;;;;;;;0.00;0.00;;;;;;;;1548432;28;89947;-86
2021/01/28 11:18:40;;;;;;;;;0.67;0.67;;;;;;;;1552742;28;88412;-85
2021/01/28 11:19:25;;;;;;;;;0.00;0.00;;;;;;;;1550686;28;87856;-86
2021/01/28 11:20:12;;;;;;;;;0.00;0.00;;;;;;;;1545919;28;90469;-86
2021/01/28 11:20:57;;;;;;;;;0.00;0.00;;;;;;;;1541204;28;89449;-86
2021/01/28 11:21:42;;;;;;;;;2.00;0.00;;;;;;;;1541276;28;89240;-86
2021/01/28 11:22:27;;;;;;;;;1.00;1.00;;;;;;;;1535172;28;89323;-86
2021/01/28 11:23:14;;;;;;;;;0.00;0.00;;;;;;;;1536957;28;88633;-88
2021/01/28 11:23:59;;;;;;;;;1.50;0.75;;;;;;;;1541148;28;90226;-89
2021/01/28 11:24:45;;;;;;;;;1.33;1.00;;;;;;;;1535270;28;89951;-87
2021/01/28 11:25:31;;;;;;;;;1.25;0.25;;;;;;;;1537296;28;90164;-88
2021/01/28 11:26:16;;;;;;;;;0.33;0.33;;;;;;;;1541378;28;86972;-87
2021/01/28 11:27:02;;;;;;;;;0.00;0.00;;;;;;;;1537285;28;89543;-88
2021/01/28 11:27:48;;;;;;;;;0.00;0.00;;;;;;;;1540452;28;90337;-88
2021/01/28 11:28:33;;;;;;;;;0.75;0.75;;;;;;;;1535250;28;88715;-87
2021/01/28 11:29:22;;;;;;;;;1.00;1.00;;;;;;;;1530929;28;90436;-88
2021/01/28 11:30:08;;;;;;;;;0.50;0.50;;;;;;;;1534886;28;90601;-87
2021/01/28 11:30:54;;;;;;;;;1.00;1.00;;;;;;;;1533605;28;89937;-86
2021/01/28 11:31:39;;;;;;;;;1.00;0.67;;;;;;;;1534998;28;90496;-86
2021/01/28 11:32:24;;;;;;;;;1.67;1.67;;;;;;;;1530995;28;89372;-87
2021/01/28 11:33:10;;;;;;;;;0.00;0.00;;;;;;;;1530859;28;89336;-87
2021/01/28 11:33:55;;;;;;;;;2.00;0.33;;;;;;;;1535105;28;90096;-87
2021/01/28 11:34:40;;;;;;;;;1.00;1.00;;;;;;;;1534895;28;90142;-86
2021/01/28 11:35:27;;;;;;;;;0.50;0.50;;;;;;;;1536929;28;87053;-88